sensor_id;sensor_type;location;lat;lon;timestamp;temperature;humidity
63013;DHT22;62113;45.624;11.700;2023-03-14T00:01:49;15.50;54.40
63013;DHT22;62113;45.624;11.700;2023-03-14T00:04:15;15.50;54.30
63013;DHT22;62113;45.624;11.700;2023-03-14T00:06:40;15.50;54.70
63013;DHT22;62113;45.624;11.700;2023-03-14T00:09:06;15.50;54.40
63013;DHT22;62113;45.624;11.700;2023-03-14T00:11:32;15.50;54.40
63013;DHT22;62113;45.624;11.700;2023-03-14T00:13:57;15.50;54.30
63013;DHT22;62113;45.624;11.700;2023-03-14T00:16:23;15.50;54.40
63013;DHT22;62113;45.624;11.700;2023-03-14T00:18:48;15.50;54.50
63013;DHT22;62113;45.624;11.700;2023-03-14T00:21:14;15.50;54.50
63013;DHT22;62113;45.624;11.700;2023-03-14T00:23:40;15.50;54.50
63013;DHT22;62113;45.624;11.700;2023-03-14T00:26:06;15.50;54.50
63013;DHT22;62113;45.624;11.700;2023-03-14T00:28:32;15.50;54.50
63013;DHT22;62113;45.624;11.700;2023-03-14T00:30:58;15.40;54.60
63013;DHT22;62113;45.624;11.700;2023-03-14T00:33:23;15.50;54.50
63013;DHT22;62113;45.624;11.700;2023-03-14T00:35:56;15.50;54.70
63013;DHT22;62113;45.624;11.700;2023-03-14T00:38:22;15.50;54.70
63013;DHT22;62113;45.624;11.700;2023-03-14T00:40:49;15.40;54.70
63013;DHT22;62113;45.624;11.700;2023-03-14T00:43:15;15.40;54.80
63013;DHT22;62113;45.624;11.700;2023-03-14T00:45:41;15.40;54.90
63013;DHT22;62113;45.624;11.700;2023-03-14T00:48:06;15.50;55.10
63013;DHT22;62113;45.624;11.700;2023-03-14T00:50:31;15.40;55.10
63013;DHT22;62113;45.624;11.700;2023-03-14T00:52:57;15.40;55.00
63013;DHT22;62113;45.624;11.700;2023-03-14T00:55:24;15.40;55.20
63013;DHT22;62113;45.624;11.700;2023-03-14T00:57:49;15.40;55.30
63013;DHT22;62113;45.624;11.700;2023-03-14T01:00:15;15.40;55.20
63013;DHT22;62113;45.624;11.700;2023-03-14T01:02:41;15.40;55.20
63013;DHT22;62113;45.624;11.700;2023-03-14T01:05:06;15.30;55.20
63013;DHT22;62113;45.624;11.700;2023-03-14T01:07:32;15.30;55.20
63013;DHT22;62113;45.624;11.700;2023-03-14T01:09:58;15.40;55.30
63013;DHT22;62113;45.624;11.700;2023-03-14T01:12:24;15.30;55.20
63013;DHT22;62113;45.624;11.700;2023-03-14T01:14:49;15.30;55.30
63013;DHT22;62113;45.624;11.700;2023-03-14T01:17:15;15.30;55.20
63013;DHT22;62113;45.624;11.700;2023-03-14T01:19:40;15.30;55.30
63013;DHT22;62113;45.624;11.700;2023-03-14T01:22:06;15.30;55.30
63013;DHT22;62113;45.624;11.700;2023-03-14T01:24:31;15.30;55.30
63013;DHT22;62113;45.624;11.700;2023-03-14T01:26:57;15.30;55.20
63013;DHT22;62113;45.624;11.700;2023-03-14T01:29:22;15.20;55.20
63013;DHT22;62113;45.624;11.700;2023-03-14T01:31:47;15.30;55.20
63013;DHT22;62113;45.624;11.700;2023-03-14T01:34:13;15.30;55.30
63013;DHT22;62113;45.624;11.700;2023-03-14T01:36:38;15.30;55.30
63013;DHT22;62113;45.624;11.700;2023-03-14T01:39:04;15.20;55.30
63013;DHT22;62113;45.624;11.700;2023-03-14T01:41:31;15.10;55.70
63013;DHT22;62113;45.624;11.700;2023-03-14T01:43:57;15.10;55.60
63013;DHT22;62113;45.624;11.700;2023-03-14T01:46:28;15.00;55.90
63013;DHT22;62113;45.624;11.700;2023-03-14T01:49:16;15.10;55.70
63013;DHT22;62113;45.624;11.700;2023-03-14T01:54:41;15.10;55.70
63013;DHT22;62113;45.624;11.700;2023-03-14T01:57:11;15.10;55.70
63013;DHT22;62113;45.624;11.700;2023-03-14T01:59:38;15.10;55.60
63013;DHT22;62113;45.624;11.700;2023-03-14T02:02:05;15.10;55.50
63013;DHT22;62113;45.624;11.700;2023-03-14T02:04:32;15.20;55.70
63013;DHT22;62113;45.624;11.700;2023-03-14T02:07:10;15.20;55.60
63013;DHT22;62113;45.624;11.700;2023-03-14T02:09:38;15.10;55.60
63013;DHT22;62113;45.624;11.700;2023-03-14T02:12:04;15.10;55.60
63013;DHT22;62113;45.624;11.700;2023-03-14T02:14:30;15.10;55.60
63013;DHT22;62113;45.624;11.700;2023-03-14T02:16:56;15.10;55.60
63013;DHT22;62113;45.624;11.700;2023-03-14T02:19:26;15.10;55.50
63013;DHT22;62113;45.624;11.700;2023-03-14T02:22:02;15.10;55.50
63013;DHT22;62113;45.624;11.700;2023-03-14T02:24:38;15.10;55.40
63013;DHT22;62113;45.624;11.700;2023-03-14T02:29:33;15.20;55.30
63013;DHT22;62113;45.624;11.700;2023-03-14T02:32:01;15.20;55.40
63013;DHT22;62113;45.624;11.700;2023-03-14T02:34:27;15.20;55.20
63013;DHT22;62113;45.624;11.700;2023-03-14T02:36:53;15.20;55.20
63013;DHT22;62113;45.624;11.700;2023-03-14T02:39:20;15.20;55.20
63013;DHT22;62113;45.624;11.700;2023-03-14T02:41:48;15.20;55.10
63013;DHT22;62113;45.624;11.700;2023-03-14T02:44:14;15.10;55.10
63013;DHT22;62113;45.624;11.700;2023-03-14T02:46:40;15.10;55.10
63013;DHT22;62113;45.624;11.700;2023-03-14T02:49:10;15.10;55.10
63013;DHT22;62113;45.624;11.700;2023-03-14T02:51:37;15.10;55.10
63013;DHT22;62113;45.624;11.700;2023-03-14T02:54:03;15.10;55.10
63013;DHT22;62113;45.624;11.700;2023-03-14T02:56:28;15.10;55.10
63013;DHT22;62113;45.624;11.700;2023-03-14T02:58:54;15.10;55.10
63013;DHT22;62113;45.624;11.700;2023-03-14T03:01:19;15.10;55.10
63013;DHT22;62113;45.624;11.700;2023-03-14T03:03:45;15.10;55.10
63013;DHT22;62113;45.624;11.700;2023-03-14T03:06:10;15.10;55.10
63013;DHT22;62113;45.624;11.700;2023-03-14T03:08:36;15.10;55.20
63013;DHT22;62113;45.624;11.700;2023-03-14T03:11:01;15.10;55.10
63013;DHT22;62113;45.624;11.700;2023-03-14T03:13:27;15.10;55.10
63013;DHT22;62113;45.624;11.700;2023-03-14T03:15:52;15.10;55.10
63013;DHT22;62113;45.624;11.700;2023-03-14T03:18:18;15.10;55.10
63013;DHT22;62113;45.624;11.700;2023-03-14T03:20:43;15.10;55.40
63013;DHT22;62113;45.624;11.700;2023-03-14T03:23:09;15.10;55.50
63013;DHT22;62113;45.624;11.700;2023-03-14T03:25:35;15.10;55.40
63013;DHT22;62113;45.624;11.700;2023-03-14T03:28:00;15.10;55.40
63013;DHT22;62113;45.624;11.700;2023-03-14T03:30:26;15.10;55.60
63013;DHT22;62113;45.624;11.700;2023-03-14T03:32:51;15.10;55.50
63013;DHT22;62113;45.624;11.700;2023-03-14T03:35:17;15.10;55.50
63013;DHT22;62113;45.624;11.700;2023-03-14T03:37:42;15.10;55.60
63013;DHT22;62113;45.624;11.700;2023-03-14T03:40:08;15.10;55.50
63013;DHT22;62113;45.624;11.700;2023-03-14T03:42:34;15.10;55.50
63013;DHT22;62113;45.624;11.700;2023-03-14T03:45:00;15.10;55.50
63013;DHT22;62113;45.624;11.700;2023-03-14T03:47:26;15.20;55.50
63013;DHT22;62113;45.624;11.700;2023-03-14T03:49:51;15.20;55.50
63013;DHT22;62113;45.624;11.700;2023-03-14T03:52:17;15.10;55.50
63013;DHT22;62113;45.624;11.700;2023-03-14T03:54:42;15.20;55.50
63013;DHT22;62113;45.624;11.700;2023-03-14T03:57:08;15.20;55.50
63013;DHT22;62113;45.624;11.700;2023-03-14T03:59:33;15.10;55.60
63013;DHT22;62113;45.624;11.700;2023-03-14T04:01:59;15.10;55.60
63013;DHT22;62113;45.624;11.700;2023-03-14T04:04:24;15.10;55.70
63013;DHT22;62113;45.624;11.700;2023-03-14T04:06:50;15.00;55.70
63013;DHT22;62113;45.624;11.700;2023-03-14T04:09:15;15.00;55.70
63013;DHT22;62113;45.624;11.700;2023-03-14T04:11:41;15.00;55.80
63013;DHT22;62113;45.624;11.700;2023-03-14T04:14:07;15.00;55.90
63013;DHT22;62113;45.624;11.700;2023-03-14T04:16:32;14.80;56.60
63013;DHT22;62113;45.624;11.700;2023-03-14T04:18:58;14.70;57.00
63013;DHT22;62113;45.624;11.700;2023-03-14T04:21:24;14.60;56.90
63013;DHT22;62113;45.624;11.700;2023-03-14T04:23:49;14.60;57.30
63013;DHT22;62113;45.624;11.700;2023-03-14T04:26:15;14.50;57.20
63013;DHT22;62113;45.624;11.700;2023-03-14T04:28:41;14.50;57.40
63013;DHT22;62113;45.624;11.700;2023-03-14T04:31:07;14.60;57.50
63013;DHT22;62113;45.624;11.700;2023-03-14T04:33:33;14.60;57.30
63013;DHT22;62113;45.624;11.700;2023-03-14T04:35:58;14.60;57.20
63013;DHT22;62113;45.624;11.700;2023-03-14T04:38:24;14.60;57.20
63013;DHT22;62113;45.624;11.700;2023-03-14T04:40:49;14.70;57.20
63013;DHT22;62113;45.624;11.700;2023-03-14T04:43:15;14.70;57.40
63013;DHT22;62113;45.624;11.700;2023-03-14T04:45:43;14.70;57.20
63013;DHT22;62113;45.624;11.700;2023-03-14T04:48:09;14.70;57.20
63013;DHT22;62113;45.624;11.700;2023-03-14T04:50:34;14.70;57.20
63013;DHT22;62113;45.624;11.700;2023-03-14T04:53:00;14.70;57.40
63013;DHT22;62113;45.624;11.700;2023-03-14T04:55:25;14.80;57.40
63013;DHT22;62113;45.624;11.700;2023-03-14T04:57:51;14.80;57.60
63013;DHT22;62113;45.624;11.700;2023-03-14T05:00:16;14.70;57.70
63013;DHT22;62113;45.624;11.700;2023-03-14T05:02:45;14.70;57.70
63013;DHT22;62113;45.624;11.700;2023-03-14T05:05:10;14.80;57.80
63013;DHT22;62113;45.624;11.700;2023-03-14T05:07:36;14.80;57.80
63013;DHT22;62113;45.624;11.700;2023-03-14T05:10:02;14.70;57.80
63013;DHT22;62113;45.624;11.700;2023-03-14T05:12:27;14.70;58.10
63013;DHT22;62113;45.624;11.700;2023-03-14T05:14:53;14.70;58.20
63013;DHT22;62113;45.624;11.700;2023-03-14T05:17:18;14.60;58.10
63013;DHT22;62113;45.624;11.700;2023-03-14T05:19:44;14.70;58.30
63013;DHT22;62113;45.624;11.700;2023-03-14T05:22:10;14.70;58.40
63013;DHT22;62113;45.624;11.700;2023-03-14T05:24:35;14.60;59.00
63013;DHT22;62113;45.624;11.700;2023-03-14T05:27:01;14.70;59.00
63013;DHT22;62113;45.624;11.700;2023-03-14T05:29:26;14.60;58.80
63013;DHT22;62113;45.624;11.700;2023-03-14T05:31:52;14.60;58.80
63013;DHT22;62113;45.624;11.700;2023-03-14T05:34:17;14.60;58.80
63013;DHT22;62113;45.624;11.700;2023-03-14T05:36:43;14.60;58.80
63013;DHT22;62113;45.624;11.700;2023-03-14T05:39:08;14.60;59.40
63013;DHT22;62113;45.624;11.700;2023-03-14T05:41:34;14.60;59.10
63013;DHT22;62113;45.624;11.700;2023-03-14T05:43:59;14.70;59.10
63013;DHT22;62113;45.624;11.700;2023-03-14T05:46:25;14.60;59.50
63013;DHT22;62113;45.624;11.700;2023-03-14T05:48:50;14.70;60.20
63013;DHT22;62113;45.624;11.700;2023-03-14T05:51:16;14.60;60.40
63013;DHT22;62113;45.624;11.700;2023-03-14T05:53:41;14.60;60.20
63013;DHT22;62113;45.624;11.700;2023-03-14T05:56:07;14.60;60.10
63013;DHT22;62113;45.624;11.700;2023-03-14T05:58:32;14.60;60.30
63013;DHT22;62113;45.624;11.700;2023-03-14T06:01:01;14.50;60.30
63013;DHT22;62113;45.624;11.700;2023-03-14T06:03:26;14.50;60.90
63013;DHT22;62113;45.624;11.700;2023-03-14T06:05:52;14.60;60.80
63013;DHT22;62113;45.624;11.700;2023-03-14T06:08:17;14.50;61.50
63013;DHT22;62113;45.624;11.700;2023-03-14T06:10:43;14.40;62.40
63013;DHT22;62113;45.624;11.700;2023-03-14T06:13:08;14.30;62.50
63013;DHT22;62113;45.624;11.700;2023-03-14T06:15:34;14.20;62.30
63013;DHT22;62113;45.624;11.700;2023-03-14T06:18:01;14.20;62.80
63013;DHT22;62113;45.624;11.700;2023-03-14T06:20:26;14.10;63.00
63013;DHT22;62113;45.624;11.700;2023-03-14T06:22:52;14.10;62.90
63013;DHT22;62113;45.624;11.700;2023-03-14T06:25:17;14.10;63.10
63013;DHT22;62113;45.624;11.700;2023-03-14T06:27:43;14.00;62.90
63013;DHT22;62113;45.624;11.700;2023-03-14T06:30:08;14.10;62.80
63013;DHT22;62113;45.624;11.700;2023-03-14T06:32:34;14.10;62.60
63013;DHT22;62113;45.624;11.700;2023-03-14T06:35:00;14.20;62.80
63013;DHT22;62113;45.624;11.700;2023-03-14T06:37:27;14.20;62.80
63013;DHT22;62113;45.624;11.700;2023-03-14T06:39:53;14.30;62.70
63013;DHT22;62113;45.624;11.700;2023-03-14T06:42:18;14.40;62.60
63013;DHT22;62113;45.624;11.700;2023-03-14T06:44:44;14.40;62.80
63013;DHT22;62113;45.624;11.700;2023-03-14T06:47:09;14.50;62.70
63013;DHT22;62113;45.624;11.700;2023-03-14T06:49:34;14.50;63.00
63013;DHT22;62113;45.624;11.700;2023-03-14T06:52:00;14.50;62.90
63013;DHT22;62113;45.624;11.700;2023-03-14T06:54:25;14.60;63.00
63013;DHT22;62113;45.624;11.700;2023-03-14T06:56:51;14.60;64.00
63013;DHT22;62113;45.624;11.700;2023-03-14T06:59:16;14.60;64.10
63013;DHT22;62113;45.624;11.700;2023-03-14T07:01:42;14.60;64.30
63013;DHT22;62113;45.624;11.700;2023-03-14T07:04:08;14.50;66.20
63013;DHT22;62113;45.624;11.700;2023-03-14T07:06:34;14.40;66.80
63013;DHT22;62113;45.624;11.700;2023-03-14T07:08:59;14.30;65.70
63013;DHT22;62113;45.624;11.700;2023-03-14T07:11:25;14.20;65.30
63013;DHT22;62113;45.624;11.700;2023-03-14T07:13:51;14.30;65.20
63013;DHT22;62113;45.624;11.700;2023-03-14T07:16:16;14.30;65.60
63013;DHT22;62113;45.624;11.700;2023-03-14T07:18:42;14.20;66.30
63013;DHT22;62113;45.624;11.700;2023-03-14T07:21:07;14.20;66.70
63013;DHT22;62113;45.624;11.700;2023-03-14T07:23:34;14.10;67.20
63013;DHT22;62113;45.624;11.700;2023-03-14T07:26:00;14.00;66.80
63013;DHT22;62113;45.624;11.700;2023-03-14T07:28:25;14.00;68.00
63013;DHT22;62113;45.624;11.700;2023-03-14T07:30:52;14.10;68.50
63013;DHT22;62113;45.624;11.700;2023-03-14T07:33:18;14.10;68.10
63013;DHT22;62113;45.624;11.700;2023-03-14T07:35:44;14.00;68.80
63013;DHT22;62113;45.624;11.700;2023-03-14T07:38:09;14.20;68.40
63013;DHT22;62113;45.624;11.700;2023-03-14T07:40:35;14.30;68.10
63013;DHT22;62113;45.624;11.700;2023-03-14T07:43:00;14.30;67.70
63013;DHT22;62113;45.624;11.700;2023-03-14T07:45:25;14.30;67.60
63013;DHT22;62113;45.624;11.700;2023-03-14T07:47:51;14.30;67.50
63013;DHT22;62113;45.624;11.700;2023-03-14T07:50:16;14.30;67.30
63013;DHT22;62113;45.624;11.700;2023-03-14T07:52:42;14.40;67.60
63013;DHT22;62113;45.624;11.700;2023-03-14T07:55:07;14.40;67.30
63013;DHT22;62113;45.624;11.700;2023-03-14T07:57:33;14.40;67.40
63013;DHT22;62113;45.624;11.700;2023-03-14T07:59:58;14.50;67.40
63013;DHT22;62113;45.624;11.700;2023-03-14T08:02:24;14.50;67.30
63013;DHT22;62113;45.624;11.700;2023-03-14T08:04:50;14.60;67.20
63013;DHT22;62113;45.624;11.700;2023-03-14T08:07:15;14.70;67.30
63013;DHT22;62113;45.624;11.700;2023-03-14T08:09:41;14.70;67.10
63013;DHT22;62113;45.624;11.700;2023-03-14T08:12:07;14.80;67.20
63013;DHT22;62113;45.624;11.700;2023-03-14T08:14:32;14.90;67.40
63013;DHT22;62113;45.624;11.700;2023-03-14T08:16:58;14.90;66.60
63013;DHT22;62113;45.624;11.700;2023-03-14T08:19:23;14.90;66.40
63013;DHT22;62113;45.624;11.700;2023-03-14T08:21:49;14.90;66.40
63013;DHT22;62113;45.624;11.700;2023-03-14T08:24:15;14.90;66.30
63013;DHT22;62113;45.624;11.700;2023-03-14T08:26:40;14.90;66.50
63013;DHT22;62113;45.624;11.700;2023-03-14T08:29:06;14.90;66.50
63013;DHT22;62113;45.624;11.700;2023-03-14T08:31:34;14.80;66.80
63013;DHT22;62113;45.624;11.700;2023-03-14T08:33:59;14.90;67.10
63013;DHT22;62113;45.624;11.700;2023-03-14T08:36:25;14.90;67.70
63013;DHT22;62113;45.624;11.700;2023-03-14T08:38:50;14.90;68.40
63013;DHT22;62113;45.624;11.700;2023-03-14T08:41:16;14.90;67.90
63013;DHT22;62113;45.624;11.700;2023-03-14T08:43:41;14.90;68.20
63013;DHT22;62113;45.624;11.700;2023-03-14T08:46:07;14.90;67.90
63013;DHT22;62113;45.624;11.700;2023-03-14T08:48:32;14.80;67.80
63013;DHT22;62113;45.624;11.700;2023-03-14T08:51:05;14.90;67.10
63013;DHT22;62113;45.624;11.700;2023-03-14T08:53:31;14.80;67.50
63013;DHT22;62113;45.624;11.700;2023-03-14T08:55:56;14.80;68.00
63013;DHT22;62113;45.624;11.700;2023-03-14T08:58:22;14.80;68.20
63013;DHT22;62113;45.624;11.700;2023-03-14T09:00:49;14.80;67.80
63013;DHT22;62113;45.624;11.700;2023-03-14T09:03:14;14.80;68.10
63013;DHT22;62113;45.624;11.700;2023-03-14T09:05:40;14.90;69.30
63013;DHT22;62113;45.624;11.700;2023-03-14T09:08:05;15.00;67.90
63013;DHT22;62113;45.624;11.700;2023-03-14T09:10:31;15.00;68.00
63013;DHT22;62113;45.624;11.700;2023-03-14T09:12:56;15.00;67.90
63013;DHT22;62113;45.624;11.700;2023-03-14T09:15:23;15.10;68.70
63013;DHT22;62113;45.624;11.700;2023-03-14T09:17:49;15.20;68.40
63013;DHT22;62113;45.624;11.700;2023-03-14T09:20:14;15.20;68.10
63013;DHT22;62113;45.624;11.700;2023-03-14T09:22:40;15.20;67.40
63013;DHT22;62113;45.624;11.700;2023-03-14T09:25:05;15.20;67.20
63013;DHT22;62113;45.624;11.700;2023-03-14T09:27:31;15.20;67.60
63013;DHT22;62113;45.624;11.700;2023-03-14T09:29:56;15.20;67.40
63013;DHT22;62113;45.624;11.700;2023-03-14T09:32:22;15.20;67.60
63013;DHT22;62113;45.624;11.700;2023-03-14T09:34:47;15.20;68.50
63013;DHT22;62113;45.624;11.700;2023-03-14T09:37:13;15.20;68.90
63013;DHT22;62113;45.624;11.700;2023-03-14T09:39:40;15.30;68.10
63013;DHT22;62113;45.624;11.700;2023-03-14T09:42:06;15.40;69.30
63013;DHT22;62113;45.624;11.700;2023-03-14T09:44:35;15.40;69.40
63013;DHT22;62113;45.624;11.700;2023-03-14T09:47:04;15.40;68.00
63013;DHT22;62113;45.624;11.700;2023-03-14T09:49:31;15.40;67.70
63013;DHT22;62113;45.624;11.700;2023-03-14T09:51:58;15.50;68.10
63013;DHT22;62113;45.624;11.700;2023-03-14T09:54:31;15.60;67.90
63013;DHT22;62113;45.624;11.700;2023-03-14T09:56:57;15.60;68.30
63013;DHT22;62113;45.624;11.700;2023-03-14T09:59:23;15.70;68.30
63013;DHT22;62113;45.624;11.700;2023-03-14T10:01:50;15.70;68.20
63013;DHT22;62113;45.624;11.700;2023-03-14T10:04:17;15.70;68.30
63013;DHT22;62113;45.624;11.700;2023-03-14T10:06:44;15.70;68.60
63013;DHT22;62113;45.624;11.700;2023-03-14T10:09:20;15.70;68.70
63013;DHT22;62113;45.624;11.700;2023-03-14T10:11:54;15.70;68.70
63013;DHT22;62113;45.624;11.700;2023-03-14T10:14:32;15.80;68.70
63013;DHT22;62113;45.624;11.700;2023-03-14T10:17:04;15.80;69.80
63013;DHT22;62113;45.624;11.700;2023-03-14T10:19:29;15.80;69.60
63013;DHT22;62113;45.624;11.700;2023-03-14T10:21:55;15.80;70.00
63013;DHT22;62113;45.624;11.700;2023-03-14T10:24:25;15.90;70.40
63013;DHT22;62113;45.624;11.700;2023-03-14T10:26:52;15.90;70.00
63013;DHT22;62113;45.624;11.700;2023-03-14T10:29:17;16.00;70.40
63013;DHT22;62113;45.624;11.700;2023-03-14T10:31:47;16.00;70.50
63013;DHT22;62113;45.624;11.700;2023-03-14T10:34:20;16.00;70.40
63013;DHT22;62113;45.624;11.700;2023-03-14T10:36:46;16.00;70.90
63013;DHT22;62113;45.624;11.700;2023-03-14T10:39:32;15.90;71.30
63013;DHT22;62113;45.624;11.700;2023-03-14T10:42:03;15.70;71.80
63013;DHT22;62113;45.624;11.700;2023-03-14T10:44:29;15.80;71.60
63013;DHT22;62113;45.624;11.700;2023-03-14T10:46:56;15.70;71.50
63013;DHT22;62113;45.624;11.700;2023-03-14T10:49:34;15.70;71.40
63013;DHT22;62113;45.624;11.700;2023-03-14T10:52:19;15.70;71.10
63013;DHT22;62113;45.624;11.700;2023-03-14T10:54:49;15.70;71.10
63013;DHT22;62113;45.624;11.700;2023-03-14T10:57:19;15.50;72.00
63013;DHT22;62113;45.624;11.700;2023-03-14T10:59:45;15.30;72.40
63013;DHT22;62113;45.624;11.700;2023-03-14T11:04:43;15.10;73.40
63013;DHT22;62113;45.624;11.700;2023-03-14T11:14:39;15.10;73.80
63013;DHT22;62113;45.624;11.700;2023-03-14T11:27:22;14.90;74.20
63013;DHT22;62113;45.624;11.700;2023-03-14T11:32:23;15.00;74.30
63013;DHT22;62113;45.624;11.700;2023-03-14T11:34:50;15.00;74.20
63013;DHT22;62113;45.624;11.700;2023-03-14T11:37:36;15.00;74.30
63013;DHT22;62113;45.624;11.700;2023-03-14T11:40:17;15.00;74.00
63013;DHT22;62113;45.624;11.700;2023-03-14T11:42:43;15.00;74.60
63013;DHT22;62113;45.624;11.700;2023-03-14T11:45:20;14.90;74.60
63013;DHT22;62113;45.624;11.700;2023-03-14T11:47:51;14.80;75.50
63013;DHT22;62113;45.624;11.700;2023-03-14T11:50:19;14.70;76.10
63013;DHT22;62113;45.624;11.700;2023-03-14T11:52:48;14.80;76.10
63013;DHT22;62113;45.624;11.700;2023-03-14T11:55:28;14.80;76.40
63013;DHT22;62113;45.624;11.700;2023-03-14T11:58:00;15.00;75.70
63013;DHT22;62113;45.624;11.700;2023-03-14T12:00:26;15.20;75.70
63013;DHT22;62113;45.624;11.700;2023-03-14T12:10:36;15.40;74.20
63013;DHT22;62113;45.624;11.700;2023-03-14T12:13:03;15.40;73.90
63013;DHT22;62113;45.624;11.700;2023-03-14T12:15:28;15.40;73.80
63013;DHT22;62113;45.624;11.700;2023-03-14T12:17:55;15.40;73.70
63013;DHT22;62113;45.624;11.700;2023-03-14T12:20:21;15.50;73.80
63013;DHT22;62113;45.624;11.700;2023-03-14T12:22:48;15.50;73.70
63013;DHT22;62113;45.624;11.700;2023-03-14T12:25:16;15.50;73.60
63013;DHT22;62113;45.624;11.700;2023-03-14T12:27:44;15.60;73.50
63013;DHT22;62113;45.624;11.700;2023-03-14T12:35:40;15.70;72.50
63013;DHT22;62113;45.624;11.700;2023-03-14T12:38:18;15.60;72.70
63013;DHT22;62113;45.624;11.700;2023-03-14T12:43:33;15.40;72.90
63013;DHT22;62113;45.624;11.700;2023-03-14T12:48:46;15.50;72.60
63013;DHT22;62113;45.624;11.700;2023-03-14T12:51:13;15.50;72.60
63013;DHT22;62113;45.624;11.700;2023-03-14T12:58:35;15.50;72.20
63013;DHT22;62113;45.624;11.700;2023-03-14T13:01:04;15.40;72.40
63013;DHT22;62113;45.624;11.700;2023-03-14T13:03:37;15.40;72.20
63013;DHT22;62113;45.624;11.700;2023-03-14T13:06:05;15.40;72.20
63013;DHT22;62113;45.624;11.700;2023-03-14T13:08:35;15.50;72.30
63013;DHT22;62113;45.624;11.700;2023-03-14T13:11:01;15.50;72.40
63013;DHT22;62113;45.624;11.700;2023-03-14T13:13:29;15.50;72.60
63013;DHT22;62113;45.624;11.700;2023-03-14T13:15:55;15.60;72.40
63013;DHT22;62113;45.624;11.700;2023-03-14T13:18:26;15.70;72.10
63013;DHT22;62113;45.624;11.700;2023-03-14T13:20:53;15.70;71.90
63013;DHT22;62113;45.624;11.700;2023-03-14T13:23:24;15.70;71.80
63013;DHT22;62113;45.624;11.700;2023-03-14T13:25:50;15.70;71.60
63013;DHT22;62113;45.624;11.700;2023-03-14T13:28:16;15.70;71.50
63013;DHT22;62113;45.624;11.700;2023-03-14T13:30:46;15.60;71.60
63013;DHT22;62113;45.624;11.700;2023-03-14T13:33:13;15.50;71.60
63013;DHT22;62113;45.624;11.700;2023-03-14T13:35:41;15.60;71.80
63013;DHT22;62113;45.624;11.700;2023-03-14T13:38:13;15.60;71.80
63013;DHT22;62113;45.624;11.700;2023-03-14T13:40:39;15.60;71.60
63013;DHT22;62113;45.624;11.700;2023-03-14T13:43:14;15.60;71.70
63013;DHT22;62113;45.624;11.700;2023-03-14T13:46:02;15.70;72.10
63013;DHT22;62113;45.624;11.700;2023-03-14T13:48:27;15.80;71.90
63013;DHT22;62113;45.624;11.700;2023-03-14T13:50:55;16.10;71.50
63013;DHT22;62113;45.624;11.700;2023-03-14T13:53:21;16.20;70.90
63013;DHT22;62113;45.624;11.700;2023-03-14T13:55:47;16.40;70.30
63013;DHT22;62113;45.624;11.700;2023-03-14T13:58:28;16.50;69.80
63013;DHT22;62113;45.624;11.700;2023-03-14T14:01:14;16.50;69.30
63013;DHT22;62113;45.624;11.700;2023-03-14T14:03:41;16.50;69.10
63013;DHT22;62113;45.624;11.700;2023-03-14T14:06:08;16.40;68.70
63013;DHT22;62113;45.624;11.700;2023-03-14T14:08:36;16.40;68.30
63013;DHT22;62113;45.624;11.700;2023-03-14T14:11:05;16.40;68.30
63013;DHT22;62113;45.624;11.700;2023-03-14T14:13:31;16.50;68.20
63013;DHT22;62113;45.624;11.700;2023-03-14T14:15:58;16.60;68.30
63013;DHT22;62113;45.624;11.700;2023-03-14T14:18:25;16.70;68.20
63013;DHT22;62113;45.624;11.700;2023-03-14T14:20:52;16.80;67.80
63013;DHT22;62113;45.624;11.700;2023-03-14T14:23:21;16.90;67.40
63013;DHT22;62113;45.624;11.700;2023-03-14T14:25:50;17.00;67.20
63013;DHT22;62113;45.624;11.700;2023-03-14T14:28:20;17.00;66.80
63013;DHT22;62113;45.624;11.700;2023-03-14T14:30:47;17.00;66.30
63013;DHT22;62113;45.624;11.700;2023-03-14T14:33:24;17.00;66.60
63013;DHT22;62113;45.624;11.700;2023-03-14T14:35:50;17.00;66.50
63013;DHT22;62113;45.624;11.700;2023-03-14T14:38:16;16.90;65.90
63013;DHT22;62113;45.624;11.700;2023-03-14T14:40:43;16.80;66.20
63013;DHT22;62113;45.624;11.700;2023-03-14T14:43:10;16.70;66.40
63013;DHT22;62113;45.624;11.700;2023-03-14T14:45:37;16.70;66.80
63013;DHT22;62113;45.624;11.700;2023-03-14T14:48:04;16.70;67.10
63013;DHT22;62113;45.624;11.700;2023-03-14T14:50:32;16.70;67.10
63013;DHT22;62113;45.624;11.700;2023-03-14T14:52:59;16.70;67.10
63013;DHT22;62113;45.624;11.700;2023-03-14T14:55:30;16.70;66.40
63013;DHT22;62113;45.624;11.700;2023-03-14T14:57:56;16.80;66.40
63013;DHT22;62113;45.624;11.700;2023-03-14T15:00:23;16.80;66.70
63013;DHT22;62113;45.624;11.700;2023-03-14T15:02:50;16.80;66.80
63013;DHT22;62113;45.624;11.700;2023-03-14T15:07:42;16.90;66.50
63013;DHT22;62113;45.624;11.700;2023-03-14T15:10:29;16.90;66.40
63013;DHT22;62113;45.624;11.700;2023-03-14T15:12:54;16.90;66.40
63013;DHT22;62113;45.624;11.700;2023-03-14T15:15:19;16.80;66.00
63013;DHT22;62113;45.624;11.700;2023-03-14T15:17:45;16.80;65.80
63013;DHT22;62113;45.624;11.700;2023-03-14T15:20:11;16.70;66.00
63013;DHT22;62113;45.624;11.700;2023-03-14T15:22:40;16.70;66.00
63013;DHT22;62113;45.624;11.700;2023-03-14T15:25:07;16.60;66.00
63013;DHT22;62113;45.624;11.700;2023-03-14T15:27:33;16.60;66.20
63013;DHT22;62113;45.624;11.700;2023-03-14T15:29:58;16.60;66.00
63013;DHT22;62113;45.624;11.700;2023-03-14T15:32:25;16.50;66.10
63013;DHT22;62113;45.624;11.700;2023-03-14T15:34:53;16.50;66.30
63013;DHT22;62113;45.624;11.700;2023-03-14T15:37:19;16.60;66.10
63013;DHT22;62113;45.624;11.700;2023-03-14T15:39:44;16.60;65.90
63013;DHT22;62113;45.624;11.700;2023-03-14T15:42:10;16.60;66.00
63013;DHT22;62113;45.624;11.700;2023-03-14T15:44:36;16.50;65.70
63013;DHT22;62113;45.624;11.700;2023-03-14T15:47:02;16.50;65.80
63013;DHT22;62113;45.624;11.700;2023-03-14T15:49:28;16.60;66.00
63013;DHT22;62113;45.624;11.700;2023-03-14T15:51:53;16.60;66.10
63013;DHT22;62113;45.624;11.700;2023-03-14T15:54:19;16.70;65.70
63013;DHT22;62113;45.624;11.700;2023-03-14T15:56:45;16.70;65.50
63013;DHT22;62113;45.624;11.700;2023-03-14T15:59:10;16.70;65.50
63013;DHT22;62113;45.624;11.700;2023-03-14T16:01:35;16.70;65.10
63013;DHT22;62113;45.624;11.700;2023-03-14T16:04:01;16.50;65.00
63013;DHT22;62113;45.624;11.700;2023-03-14T16:06:27;16.50;65.20
63013;DHT22;62113;45.624;11.700;2023-03-14T16:08:53;16.40;65.40